createdAt,value
2018-03-27T00:00:03.997Z,27.47
2018-03-27T00:02:31.540Z,28.67
2018-03-27T00:05:00.720Z,30.30
2018-03-27T00:07:28.281Z,28.77
2018-03-27T00:09:56.754Z,27.10
2018-03-27T00:12:24.342Z,28.23
2018-03-27T00:14:52.618Z,28.83
2018-03-27T00:17:20.237Z,30.60
2018-03-27T00:19:47.781Z,31.37
2018-03-27T00:22:16.009Z,28.53
2018-03-27T00:24:44.474Z,28.27
2018-03-27T00:27:11.535Z,27.27
2018-03-27T00:29:50.961Z,26.17
2018-03-27T00:32:31.162Z,26.80
2018-03-27T00:35:11.474Z,26.13
2018-03-27T00:37:50.840Z,27.00
2018-03-27T00:40:30.156Z,27.03
2018-03-27T00:43:02.621Z,30.30
2018-03-27T00:45:30.133Z,29.73
2018-03-27T00:47:58.436Z,27.63
2018-03-27T00:50:26.010Z,30.70
2018-03-27T00:52:53.544Z,26.83
2018-03-27T00:55:21.830Z,27.67
2018-03-27T00:57:50.120Z,26.83
2018-03-27T01:00:18.555Z,28.10
2018-03-27T01:02:46.166Z,27.10
2018-03-27T01:05:15.472Z,26.67
2018-03-27T01:07:43.009Z,26.77
2018-03-27T01:10:11.326Z,26.40
2018-03-27T01:12:38.896Z,26.90
2018-03-27T01:15:07.314Z,28.20
2018-03-27T01:17:34.892Z,27.40
2018-03-27T01:20:03.326Z,28.87
2018-03-27T01:22:31.469Z,26.37
2018-03-27T01:24:58.960Z,28.13
2018-03-27T01:27:26.499Z,25.67
2018-03-27T01:29:54.781Z,28.03
2018-03-27T01:32:23.261Z,29.10
2018-03-27T01:34:50.782Z,29.20
2018-03-27T01:37:18.281Z,29.67
2018-03-27T01:39:45.808Z,29.97
2018-03-27T01:42:14.321Z,31.73
2018-03-27T01:44:41.901Z,32.03
2018-03-27T01:47:09.504Z,33.93
2018-03-27T01:49:39.027Z,34.00
2018-03-27T01:52:07.499Z,35.90
2018-03-27T01:54:52.900Z,35.33
2018-03-27T01:59:59.574Z,34.53
2018-03-27T02:02:27.076Z,35.07
2018-03-27T02:04:54.632Z,36.73
2018-03-27T02:07:24.089Z,37.67
2018-03-27T02:10:11.106Z,37.20
2018-03-27T02:12:45.311Z,36.93
2018-03-27T02:15:20.335Z,38.53
2018-03-27T02:17:55.273Z,40.83
2018-03-27T02:20:29.210Z,41.17
2018-03-27T02:23:06.318Z,41.33
2018-03-27T02:25:34.671Z,42.23
2018-03-27T02:28:03.135Z,44.77
2018-03-27T02:30:51.115Z,41.13
2018-03-27T02:33:18.697Z,43.27
2018-03-27T02:35:46.217Z,40.20
2018-03-27T02:38:13.746Z,45.17
2018-03-27T02:40:41.310Z,44.33
2018-03-27T02:43:08.906Z,46.07
2018-03-27T02:45:36.454Z,45.00
2018-03-27T02:48:04.759Z,42.40
2018-03-27T02:50:32.293Z,42.93
2018-03-27T02:52:59.865Z,44.20
2018-03-27T02:55:28.154Z,45.70
2018-03-27T02:57:55.689Z,44.30
2018-03-27T03:00:23.244Z,44.17
2018-03-27T03:02:50.767Z,40.13
2018-03-27T03:05:20.245Z,41.63
2018-03-27T03:10:47.618Z,39.83
2018-03-27T03:13:15.992Z,35.80
2018-03-27T03:15:44.310Z,35.90
2018-03-27T03:18:11.873Z,36.23
2018-03-27T03:20:40.314Z,37.90
2018-03-27T03:23:08.766Z,37.27
2018-03-27T03:25:36.324Z,38.20
2018-03-27T03:28:05.808Z,36.73
2018-03-27T03:30:33.324Z,36.00
2018-03-27T03:33:00.852Z,33.10
2018-03-27T03:35:29.351Z,31.67
2018-03-27T03:37:56.893Z,32.13
2018-03-27T03:40:24.407Z,33.40
2018-03-27T03:42:52.046Z,27.47
2018-03-27T03:45:19.573Z,28.70
2018-03-27T03:47:49.065Z,31.47
2018-03-27T03:50:16.628Z,33.63
2018-03-27T03:52:44.904Z,31.67
2018-03-27T03:55:15.218Z,34.67
2018-03-27T03:57:42.735Z,36.03
2018-03-27T04:00:11.192Z,33.67
2018-03-27T04:02:38.705Z,34.73
2018-03-27T04:05:07.176Z,35.47
2018-03-27T04:07:35.650Z,40.43
2018-03-27T04:10:03.240Z,40.17
2018-03-27T04:12:30.818Z,42.97
2018-03-27T04:15:16.181Z,44.43
2018-03-27T04:17:44.637Z,40.63
2018-03-27T04:20:12.167Z,40.93
2018-03-27T04:25:20.546Z,40.80
2018-03-27T04:27:48.090Z,43.37
2018-03-27T04:30:15.586Z,45.47
2018-03-27T04:32:43.107Z,45.93
2018-03-27T04:35:10.642Z,45.27
2018-03-27T04:37:39.568Z,46.83
2018-03-27T04:40:07.184Z,47.87
2018-03-27T04:42:36.697Z,47.23
2018-03-27T04:45:05.171Z,45.47
2018-03-27T04:47:32.673Z,46.00
2018-03-27T04:50:01.133Z,47.30
2018-03-27T04:52:28.593Z,49.83
2018-03-27T04:54:56.138Z,44.53
2018-03-27T04:57:23.678Z,47.03
2018-03-27T04:59:51.388Z,44.10
2018-03-27T05:02:18.909Z,37.67
2018-03-27T05:04:47.196Z,38.23
2018-03-27T05:07:14.793Z,35.63
2018-03-27T05:09:42.295Z,36.93
2018-03-27T05:12:09.844Z,33.23
2018-03-27T05:14:38.142Z,28.70
2018-03-27T05:17:06.657Z,31.37
2018-03-27T05:19:34.254Z,30.80
2018-03-27T05:22:02.717Z,30.50
2018-03-27T05:24:30.237Z,27.90
2018-03-27T05:26:57.772Z,31.93
2018-03-27T05:29:25.375Z,27.47
2018-03-27T05:31:52.913Z,22.33
2018-03-27T05:34:20.466Z,21.40
2018-03-27T05:36:48.082Z,18.17
2018-03-27T05:39:15.634Z,19.57
2018-03-27T05:41:43.939Z,26.47
2018-03-27T05:44:11.427Z,26.37
2018-03-27T05:46:39.861Z,27.67
2018-03-27T05:49:08.965Z,28.70
2018-03-27T05:51:36.595Z,28.07
2018-03-27T05:54:04.083Z,28.10
2018-03-27T05:56:33.364Z,29.40
2018-03-27T05:59:01.781Z,30.43
2018-03-27T06:01:29.364Z,31.63
2018-03-27T06:03:57.859Z,32.73
2018-03-27T06:06:25.355Z,32.23
2018-03-27T06:08:52.897Z,29.53
2018-03-27T06:11:20.395Z,27.73
2018-03-27T06:13:47.984Z,28.83
2018-03-27T06:16:15.556Z,28.97
2018-03-27T06:18:43.117Z,28.27
2018-03-27T06:21:10.694Z,28.90
2018-03-27T06:23:38.279Z,28.37
2018-03-27T06:26:05.761Z,27.97
2018-03-27T06:28:35.220Z,26.57
2018-03-27T06:31:02.795Z,27.10
2018-03-27T06:33:30.383Z,26.83
2018-03-27T06:35:57.982Z,28.23
2018-03-27T06:38:25.616Z,26.73
2018-03-27T06:40:53.161Z,26.40
2018-03-27T06:43:20.721Z,24.97
2018-03-27T06:45:48.311Z,25.17
2018-03-27T06:48:15.814Z,25.70
2018-03-27T06:50:43.365Z,25.33
2018-03-27T06:53:11.790Z,26.30
2018-03-27T06:55:39.489Z,23.47
2018-03-27T06:58:07.697Z,25.77
2018-03-27T07:00:36.042Z,22.07
2018-03-27T07:03:04.494Z,25.00
2018-03-27T07:05:32.854Z,23.13
2018-03-27T07:08:01.993Z,22.30
2018-03-27T07:10:29.571Z,20.63
2018-03-27T07:12:58.111Z,19.80
2018-03-27T07:15:26.552Z,19.17
2018-03-27T07:17:54.078Z,18.83
2018-03-27T07:20:22.353Z,19.53
2018-03-27T07:22:50.717Z,20.87
2018-03-27T07:25:18.314Z,19.93
2018-03-27T07:27:46.830Z,19.90
2018-03-27T07:30:14.346Z,19.33
2018-03-27T07:32:42.805Z,19.23
2018-03-27T07:35:10.362Z,17.63
2018-03-27T07:37:37.922Z,19.43
2018-03-27T07:40:06.370Z,21.03
2018-03-27T07:42:33.868Z,19.17
2018-03-27T07:45:02.443Z,19.37
2018-03-27T07:47:30.897Z,18.93
2018-03-27T07:49:58.447Z,18.23
2018-03-27T07:52:27.237Z,16.93
2018-03-27T07:54:54.793Z,17.53
2018-03-27T07:57:22.427Z,17.60
2018-03-27T07:59:50.053Z,17.60
2018-03-27T08:02:17.558Z,16.73
2018-03-27T08:04:47.021Z,15.90
2018-03-27T08:07:16.347Z,16.73
2018-03-27T08:09:44.872Z,16.93
2018-03-27T08:12:12.381Z,16.33
2018-03-27T08:14:39.916Z,16.00
2018-03-27T08:17:07.440Z,16.60
2018-03-27T08:19:35.045Z,16.90
2018-03-27T08:22:03.336Z,16.03
2018-03-27T08:24:30.883Z,15.17
2018-03-27T08:26:58.409Z,16.07
2018-03-27T08:29:26.067Z,16.30
2018-03-27T08:31:53.623Z,15.17
2018-03-27T08:34:21.233Z,15.43
2018-03-27T08:36:49.011Z,14.40
2018-03-27T08:39:17.448Z,14.17
2018-03-27T08:41:46.308Z,14.27
2018-03-27T08:44:13.904Z,13.73
2018-03-27T08:46:41.446Z,12.23
2018-03-27T08:49:11.409Z,12.93
2018-03-27T08:51:38.959Z,9.40
2018-03-27T08:54:06.622Z,10.70
2018-03-27T08:56:34.124Z,11.40
2018-03-27T08:59:01.713Z,10.87
2018-03-27T09:01:30.296Z,11.93
2018-03-27T09:03:57.890Z,12.40
2018-03-27T09:06:26.088Z,11.97
2018-03-27T09:08:53.674Z,12.10
2018-03-27T09:11:22.211Z,10.77
2018-03-27T09:13:50.581Z,10.73
2018-03-27T09:16:18.144Z,11.00
2018-03-27T09:18:45.734Z,9.70
2018-03-27T09:21:14.097Z,10.80
2018-03-27T09:23:41.674Z,11.23
2018-03-27T09:26:09.197Z,11.27
2018-03-27T09:28:36.794Z,11.27
2018-03-27T09:31:04.420Z,10.97
2018-03-27T09:33:31.969Z,11.93
2018-03-27T09:35:59.575Z,13.93
2018-03-27T09:38:27.169Z,11.57
2018-03-27T09:40:54.712Z,11.30
2018-03-27T09:43:22.260Z,12.30
2018-03-27T09:45:49.882Z,13.47
2018-03-27T09:48:18.322Z,13.27
2018-03-27T09:50:45.846Z,13.90
2018-03-27T09:53:13.446Z,13.70
2018-03-27T09:55:41.146Z,12.93
2018-03-27T09:58:09.507Z,12.40
2018-03-27T10:00:43.549Z,11.27
2018-03-27T10:03:11.118Z,11.50
2018-03-27T10:05:39.557Z,11.87
2018-03-27T10:08:07.232Z,11.83
2018-03-27T10:10:35.538Z,10.80
2018-03-27T10:13:03.834Z,11.40
2018-03-27T10:15:31.373Z,10.67
2018-03-27T10:18:00.615Z,10.87
2018-03-27T10:20:28.189Z,11.83
2018-03-27T10:22:55.754Z,11.97
2018-03-27T10:25:24.092Z,11.20
2018-03-27T10:27:53.283Z,11.33
2018-03-27T10:30:21.600Z,11.20
2018-03-27T10:32:50.053Z,11.43
2018-03-27T10:35:19.249Z,10.47
2018-03-27T10:37:47.557Z,12.50
2018-03-27T10:40:20.510Z,13.40
2018-03-27T10:42:48.965Z,13.20
2018-03-27T10:45:16.467Z,12.40
2018-03-27T10:47:44.050Z,12.67
2018-03-27T10:50:11.602Z,12.20
2018-03-27T10:52:40.803Z,12.97
2018-03-27T10:55:08.363Z,12.30
2018-03-27T10:57:37.681Z,12.83
2018-03-27T11:00:07.917Z,13.67
2018-03-27T11:02:38.125Z,12.53
2018-03-27T11:05:09.138Z,12.37
2018-03-27T11:07:37.712Z,13.30
2018-03-27T11:10:06.274Z,12.10
2018-03-27T11:12:34.738Z,12.63
2018-03-27T11:18:02.115Z,12.50
2018-03-27T11:20:30.959Z,12.80
2018-03-27T11:22:58.537Z,11.30
2018-03-27T11:25:26.068Z,11.83
2018-03-27T11:27:53.643Z,12.50
2018-03-27T11:30:22.196Z,10.83
2018-03-27T11:32:49.738Z,12.00
2018-03-27T11:35:18.001Z,11.83
2018-03-27T11:37:46.135Z,11.77
2018-03-27T11:40:14.534Z,11.20
2018-03-27T11:42:42.643Z,12.03
2018-03-27T11:45:11.479Z,11.23
2018-03-27T11:47:39.038Z,11.40
2018-03-27T11:50:06.616Z,11.13
2018-03-27T11:52:34.195Z,10.90
2018-03-27T11:55:01.863Z,11.07
2018-03-27T11:57:29.700Z,11.07
2018-03-27T11:59:58.022Z,10.27
2018-03-27T12:02:26.443Z,11.53
2018-03-27T12:04:53.947Z,11.27
2018-03-27T12:07:21.482Z,10.87
2018-03-27T12:12:51.180Z,11.30
2018-03-27T12:15:18.768Z,11.07
2018-03-27T12:17:46.899Z,11.10
2018-03-27T12:20:15.461Z,11.60
2018-03-27T12:22:42.977Z,10.90
2018-03-27T12:25:10.535Z,10.87
2018-03-27T12:27:38.055Z,11.33
2018-03-27T12:30:05.601Z,12.47
2018-03-27T12:32:33.134Z,10.97
2018-03-27T12:35:00.624Z,10.63
2018-03-27T12:37:28.280Z,12.03
2018-03-27T12:39:56.670Z,11.57
2018-03-27T12:42:24.274Z,12.07
2018-03-27T12:44:52.511Z,11.27
2018-03-27T12:47:20.809Z,11.27
2018-03-27T12:49:49.221Z,11.50
2018-03-27T12:52:16.770Z,10.83
2018-03-27T12:54:44.316Z,11.83
2018-03-27T12:57:11.867Z,12.20
2018-03-27T12:59:40.133Z,11.93
2018-03-27T13:02:07.647Z,11.90
2018-03-27T13:04:36.213Z,11.20
2018-03-27T13:07:03.766Z,11.90
2018-03-27T13:09:32.085Z,10.73
2018-03-27T13:11:59.604Z,11.07
2018-03-27T13:14:27.866Z,11.80
2018-03-27T13:16:56.399Z,11.33
2018-03-27T13:19:23.920Z,11.90
2018-03-27T13:21:53.339Z,10.50
2018-03-27T13:24:21.629Z,11.10
2018-03-27T13:26:49.929Z,11.83
2018-03-27T13:29:18.377Z,10.43
2018-03-27T13:31:45.993Z,10.60
2018-03-27T13:34:17.012Z,10.60
2018-03-27T13:36:48.526Z,10.23
2018-03-27T13:39:16.084Z,10.77
2018-03-27T13:41:43.690Z,11.40
2018-03-27T13:44:12.131Z,10.20
2018-03-27T13:46:39.645Z,11.00
2018-03-27T13:49:08.872Z,11.13
2018-03-27T13:51:39.335Z,11.77
2018-03-27T13:54:06.929Z,11.07
2018-03-27T13:56:36.229Z,10.70
2018-03-27T13:59:03.790Z,11.50
2018-03-27T14:01:31.314Z,12.13
2018-03-27T14:03:58.907Z,10.83
2018-03-27T14:06:26.476Z,11.50
2018-03-27T14:08:53.997Z,11.37
2018-03-27T14:11:21.499Z,11.13
2018-03-27T14:13:49.171Z,11.20
2018-03-27T14:16:16.720Z,10.40
2018-03-27T14:18:44.262Z,10.93
2018-03-27T14:21:11.819Z,11.57
2018-03-27T14:23:40.340Z,11.10
2018-03-27T14:26:07.826Z,10.30
2018-03-27T14:28:35.321Z,11.17
2018-03-27T14:31:02.942Z,10.37
2018-03-27T14:33:30.497Z,11.03
2018-03-27T14:35:58.052Z,10.27
2018-03-27T14:38:25.622Z,10.70
2018-03-27T14:40:53.172Z,9.90
2018-03-27T14:43:20.680Z,10.73
2018-03-27T14:45:48.183Z,11.00
2018-03-27T14:48:15.797Z,9.43
2018-03-27T14:50:44.124Z,10.23
2018-03-27T14:53:11.610Z,11.03
2018-03-27T14:55:40.149Z,9.97
2018-03-27T14:58:09.353Z,10.10
2018-03-27T15:00:37.730Z,9.80
2018-03-27T15:03:06.007Z,9.67
2018-03-27T15:05:34.915Z,10.63
2018-03-27T15:08:03.958Z,10.87
2018-03-27T15:10:31.497Z,10.50
2018-03-27T15:12:59.087Z,9.57
2018-03-27T15:15:26.609Z,10.07
2018-03-27T15:17:54.879Z,9.63
2018-03-27T15:20:23.204Z,10.20
2018-03-27T15:22:50.692Z,10.23
2018-03-27T15:25:18.216Z,9.40
2018-03-27T15:27:45.844Z,9.63
2018-03-27T15:30:14.189Z,9.43
2018-03-27T15:32:41.740Z,9.33
2018-03-27T15:35:09.257Z,8.80
2018-03-27T15:37:38.497Z,10.00
2018-03-27T15:40:06.109Z,9.50
2018-03-27T15:42:34.455Z,10.17
2018-03-27T15:45:02.038Z,10.10
2018-03-27T15:47:30.454Z,9.70
2018-03-27T15:49:58.058Z,9.60
2018-03-27T15:52:25.552Z,10.23
2018-03-27T15:54:53.095Z,9.30
2018-03-27T15:57:20.639Z,10.20
2018-03-27T15:59:48.155Z,9.63
2018-03-27T16:02:15.740Z,10.70
2018-03-27T16:04:43.286Z,9.60
2018-03-27T16:07:10.897Z,9.13
2018-03-27T16:09:39.253Z,9.57
2018-03-27T16:12:07.708Z,9.27
2018-03-27T16:14:36.745Z,11.20
2018-03-27T16:17:04.309Z,10.97
2018-03-27T16:19:33.759Z,10.80
2018-03-27T16:22:01.351Z,11.97
2018-03-27T16:24:28.892Z,10.40
2018-03-27T16:26:56.420Z,9.77
2018-03-27T16:29:24.770Z,10.97
2018-03-27T16:32:10.952Z,10.87
2018-03-27T16:34:38.595Z,10.20
2018-03-27T16:37:07.069Z,9.33
2018-03-27T16:39:35.617Z,10.00
2018-03-27T16:42:03.125Z,9.90
2018-03-27T16:47:12.311Z,10.40
2018-03-27T16:49:39.849Z,9.77
2018-03-27T16:52:09.346Z,10.37
2018-03-27T16:54:36.922Z,9.77
2018-03-27T16:57:04.445Z,10.40
2018-03-27T16:59:32.743Z,10.83
2018-03-27T17:02:01.287Z,13.03
2018-03-27T17:04:29.810Z,12.13
2018-03-27T17:06:57.316Z,20.87
2018-03-27T17:09:25.094Z,12.63
2018-03-27T17:11:52.639Z,12.80
2018-03-27T17:14:20.178Z,10.90
2018-03-27T17:16:48.582Z,12.67
2018-03-27T17:19:16.144Z,11.63
2018-03-27T17:21:43.816Z,11.87
2018-03-27T17:24:11.364Z,12.13
2018-03-27T17:26:38.945Z,12.73
2018-03-27T17:29:07.406Z,13.03
2018-03-27T17:31:34.962Z,13.93
2018-03-27T17:34:03.254Z,12.97
2018-03-27T17:36:30.803Z,11.47
2018-03-27T17:38:59.071Z,13.80
2018-03-27T17:41:27.503Z,13.87
2018-03-27T17:43:55.997Z,12.93
2018-03-27T17:46:24.367Z,20.67
2018-03-27T17:49:11.149Z,14.37
2018-03-27T17:51:39.607Z,19.97
2018-03-27T17:54:07.751Z,20.77
2018-03-27T17:56:35.339Z,13.47
2018-03-27T17:59:02.963Z,12.27
2018-03-27T18:01:32.465Z,15.20
2018-03-27T18:04:01.749Z,15.50
2018-03-27T18:06:30.308Z,14.87
2018-03-27T18:08:59.676Z,15.23
2018-03-27T18:14:40.336Z,13.77
2018-03-27T18:17:11.150Z,13.70
2018-03-27T18:19:39.622Z,17.70
2018-03-27T18:22:08.388Z,15.47
2018-03-27T18:24:38.322Z,15.10
2018-03-27T18:27:05.906Z,19.83
2018-03-27T18:29:37.111Z,19.53
2018-03-27T18:32:05.919Z,13.97
2018-03-27T18:34:34.219Z,15.37
2018-03-27T18:37:03.680Z,14.63
2018-03-27T18:40:02.529Z,14.70
2018-03-27T18:45:12.550Z,13.40
2018-03-27T18:47:40.269Z,12.87
2018-03-27T18:50:07.808Z,13.97
2018-03-27T18:52:36.117Z,12.67
2018-03-27T18:55:04.628Z,13.03
2018-03-27T19:00:36.027Z,12.10
2018-03-27T19:03:04.819Z,12.83
2018-03-27T19:05:53.243Z,12.30
2018-03-27T19:08:22.071Z,12.47
2018-03-27T19:10:50.768Z,11.40
2018-03-27T19:16:28.422Z,11.23
2018-03-27T19:19:26.754Z,11.07
2018-03-27T19:21:56.820Z,11.67
2018-03-27T19:27:23.191Z,11.97
2018-03-27T19:29:52.449Z,11.97
2018-03-27T19:32:20.007Z,12.83
2018-03-27T19:34:48.436Z,12.70
2018-03-27T19:37:18.732Z,12.00
2018-03-27T19:39:47.491Z,12.23
2018-03-27T19:42:35.781Z,11.83
2018-03-27T19:48:09.069Z,17.50
2018-03-27T19:50:57.107Z,15.93
2018-03-27T19:56:36.539Z,25.43
2018-03-27T19:59:29.704Z,22.10
2018-03-27T20:02:12.902Z,25.97
2018-03-27T20:08:07.007Z,14.47
2018-03-27T20:10:35.379Z,12.50
2018-03-27T20:16:12.197Z,13.83
2018-03-27T20:18:59.762Z,14.33
2018-03-27T20:21:29.022Z,14.60
2018-03-27T20:27:00.051Z,16.37
2018-03-27T20:29:30.253Z,14.87
2018-03-27T20:31:58.811Z,15.30
2018-03-27T20:34:26.366Z,20.03
2018-03-27T20:36:54.854Z,22.53
2018-03-27T20:39:23.293Z,27.57
2018-03-27T20:44:48.578Z,17.53
2018-03-27T20:47:18.001Z,16.10
2018-03-27T20:49:45.500Z,16.97
2018-03-27T20:52:14.080Z,16.67
2018-03-27T20:54:43.320Z,19.60
2018-03-27T20:57:10.835Z,32.53
2018-03-27T20:59:39.130Z,33.33
2018-03-27T21:02:06.709Z,29.50
2018-03-27T21:04:34.270Z,18.70
2018-03-27T21:07:01.776Z,17.33
2018-03-27T21:09:29.309Z,21.10
2018-03-27T21:11:56.821Z,19.17
2018-03-27T21:14:24.433Z,15.37
2018-03-27T21:16:52.912Z,13.90
2018-03-27T21:19:20.492Z,14.37
2018-03-27T21:21:48.990Z,15.60
2018-03-27T21:24:18.048Z,14.30
2018-03-27T21:26:46.354Z,14.00
2018-03-27T21:29:14.657Z,13.37
2018-03-27T21:31:42.164Z,14.27
2018-03-27T21:34:10.459Z,15.20
2018-03-27T21:36:39.753Z,15.17
2018-03-27T21:39:09.001Z,16.37
2018-03-27T21:41:36.538Z,14.03
2018-03-27T21:44:05.052Z,14.90
2018-03-27T21:46:32.578Z,13.87
2018-03-27T21:49:00.137Z,14.97
2018-03-27T21:54:29.116Z,15.53
2018-03-27T21:56:56.719Z,15.33
2018-03-27T21:59:24.218Z,15.70
2018-03-27T22:01:52.673Z,15.70
2018-03-27T22:04:20.174Z,16.80
2018-03-27T22:06:47.756Z,16.57
2018-03-27T22:09:15.296Z,16.17
2018-03-27T22:11:43.724Z,15.27
2018-03-27T22:14:12.037Z,15.57
2018-03-27T22:16:39.540Z,15.23
2018-03-27T22:19:07.147Z,15.87
2018-03-27T22:21:34.662Z,17.03
2018-03-27T22:24:02.890Z,15.17
2018-03-27T22:26:31.180Z,16.53
2018-03-27T22:28:58.734Z,16.87
2018-03-27T22:31:28.022Z,10.50
2018-03-27T22:33:55.621Z,14.43
2018-03-27T22:36:24.099Z,13.43
2018-03-27T22:38:51.877Z,13.93
2018-03-27T22:41:23.064Z,11.93
2018-03-27T22:43:50.612Z,12.17
2018-03-27T22:46:18.144Z,14.60
2018-03-27T22:48:46.628Z,14.80
2018-03-27T22:51:14.302Z,10.90
2018-03-27T22:53:42.748Z,9.50
2018-03-27T22:56:10.278Z,10.43
2018-03-27T22:58:39.925Z,9.20
2018-03-27T23:01:09.666Z,9.97
2018-03-27T23:03:37.196Z,10.03
2018-03-27T23:06:04.755Z,7.17
2018-03-27T23:08:32.302Z,7.73
2018-03-27T23:10:59.936Z,7.70
2018-03-27T23:13:27.477Z,8.00
2018-03-27T23:15:56.849Z,8.43
2018-03-27T23:18:24.605Z,9.50
2018-03-27T23:20:53.092Z,9.57
2018-03-27T23:23:22.564Z,8.47
2018-03-27T23:25:50.148Z,10.20
2018-03-27T23:28:17.888Z,9.60
2018-03-27T23:30:46.288Z,9.20
2018-03-27T23:33:13.789Z,8.27
2018-03-27T23:35:41.336Z,6.20
2018-03-27T23:38:09.822Z,5.50
2018-03-27T23:40:38.329Z,5.60
2018-03-27T23:43:07.761Z,4.97
2018-03-27T23:45:35.292Z,5.80
2018-03-27T23:48:04.666Z,4.63
2018-03-27T23:50:32.226Z,4.93
2018-03-27T23:52:59.745Z,4.50
2018-03-27T23:55:27.236Z,4.27
2018-03-27T23:57:55.529Z,4.63
